createdAt,value
2018-06-03T11:36:03.145Z,1013.91
2018-06-03T11:37:02.562Z,1013.92
2018-06-03T11:38:55.389Z,1013.90
2018-06-03T11:39:55.360Z,1013.93
2018-06-03T11:41:48.271Z,1013.94
2018-06-03T11:42:48.221Z,1013.91
2018-06-03T11:43:48.201Z,1013.92
2018-06-03T11:44:48.171Z,1013.94
2018-06-03T11:45:48.163Z,1013.93
2018-06-03T11:46:48.127Z,1013.91
2018-06-03T11:47:48.119Z,1013.91
2018-06-03T11:48:48.093Z,1013.97
2018-06-03T11:49:48.108Z,1013.93
2018-06-03T11:50:48.054Z,1013.94
2018-06-03T11:51:48.032Z,1013.98
2018-06-03T11:52:48.004Z,1013.94
2018-06-03T11:53:47.992Z,1013.97
2018-06-03T11:54:47.962Z,1013.96
2018-06-03T11:55:47.947Z,1014.03
2018-06-03T11:56:47.922Z,1013.94
2018-06-03T11:57:47.904Z,1013.99
2018-06-03T11:58:47.885Z,1013.98
2018-06-03T11:59:47.860Z,1013.92
2018-06-03T12:00:47.848Z,1013.95
2018-06-03T12:01:47.833Z,1013.93
2018-06-03T12:02:47.803Z,1013.92
2018-06-03T12:03:47.790Z,1013.89
2018-06-03T12:04:47.760Z,1013.88
2018-06-03T12:05:47.748Z,1013.86
2018-06-03T12:06:47.717Z,1013.85
2018-06-03T12:07:47.705Z,1013.82
2018-06-03T12:08:47.680Z,1013.84
2018-06-03T12:09:47.662Z,1013.95
2018-06-03T12:10:47.645Z,1013.87
2018-06-03T12:11:47.627Z,1013.86
2018-06-03T12:12:47.604Z,1013.80
2018-06-03T12:13:47.584Z,1013.86
2018-06-03T12:14:47.561Z,1013.92
2018-06-03T12:15:47.550Z,1013.88
2018-06-03T12:16:47.519Z,1013.89
2018-06-03T12:17:47.508Z,1013.90
2018-06-03T12:18:47.487Z,1013.94
2018-06-03T12:19:47.473Z,1013.85
2018-06-03T12:20:47.459Z,1013.86
2018-06-03T12:21:47.425Z,1013.76
2018-06-03T12:22:47.412Z,1013.84
2018-06-03T12:23:47.385Z,1013.82
2018-06-03T12:24:47.372Z,1013.75
2018-06-03T12:25:47.406Z,1013.81
2018-06-03T12:26:47.339Z,1013.78
2018-06-03T12:27:47.307Z,1013.75
2018-06-03T12:28:47.293Z,1013.78
2018-06-03T12:29:47.269Z,1013.70
2018-06-03T12:30:47.253Z,1013.70
2018-06-03T12:31:47.461Z,1013.71
2018-06-03T12:32:47.223Z,1013.70
2018-06-03T12:33:47.186Z,1013.69
2018-06-03T12:34:47.175Z,1013.71
2018-06-03T12:35:47.157Z,1013.69
2018-06-03T12:36:47.133Z,1013.64
2018-06-03T12:37:47.117Z,1013.65
2018-06-03T12:38:47.091Z,1013.65
2018-06-03T12:39:47.080Z,1013.66
2018-06-03T12:40:47.061Z,1013.65
2018-06-03T12:41:47.045Z,1013.70
2018-06-03T12:42:47.026Z,1013.64
2018-06-03T12:43:46.990Z,1013.58
2018-06-03T12:44:46.981Z,1013.67
2018-06-03T12:45:46.974Z,1013.59
2018-06-03T12:46:46.955Z,1013.62
2018-06-03T12:47:46.916Z,1013.63
2018-06-03T12:48:46.901Z,1013.56
2018-06-03T12:49:46.882Z,1013.61
2018-06-03T12:50:46.854Z,1013.58
2018-06-03T12:51:46.836Z,1013.63
2018-06-03T12:52:46.820Z,1013.53
2018-06-03T12:53:46.803Z,1013.49
2018-06-03T12:54:46.790Z,1013.51
2018-06-03T12:55:46.766Z,1013.50
2018-06-03T12:56:46.748Z,1013.45
2018-06-03T12:57:46.739Z,1013.50
2018-06-03T12:58:46.702Z,1013.45
2018-06-03T12:59:46.687Z,1013.44
2018-06-03T13:00:46.675Z,1013.45
2018-06-03T13:01:46.656Z,1013.42
2018-06-03T13:02:46.634Z,1013.43
2018-06-03T13:03:46.609Z,1013.43
2018-06-03T13:04:46.600Z,1013.47
2018-06-03T13:05:46.578Z,1013.47
2018-06-03T13:06:46.554Z,1013.41
2018-06-03T13:07:46.536Z,1013.43
2018-06-03T13:08:46.531Z,1013.46
2018-06-03T13:09:46.506Z,1013.45
2018-06-03T13:10:46.476Z,1013.36
2018-06-03T13:11:46.459Z,1013.40
2018-06-03T13:12:46.447Z,1013.37
2018-06-03T13:13:46.423Z,1013.40
2018-06-03T13:14:46.401Z,1013.42
2018-06-03T13:15:46.385Z,1013.36
2018-06-03T13:16:46.365Z,1013.38
2018-06-03T13:17:46.349Z,1013.41
2018-06-03T13:18:46.325Z,1013.35
2018-06-03T13:19:46.313Z,1013.41
2018-06-03T13:20:46.285Z,1013.39
2018-06-03T13:21:46.276Z,1013.37
2018-06-03T13:22:46.265Z,1013.41
2018-06-03T13:23:46.233Z,1013.37
2018-06-03T13:24:46.213Z,1013.36
2018-06-03T13:25:46.194Z,1013.33
2018-06-03T13:26:46.172Z,1013.36
2018-06-03T13:27:46.224Z,1013.36
2018-06-03T13:28:46.134Z,1013.39
2018-06-03T13:29:46.132Z,1013.34
2018-06-03T13:30:46.094Z,1013.39
2018-06-03T13:31:46.083Z,1013.38
2018-06-03T13:32:46.062Z,1013.33
2018-06-03T13:33:46.039Z,1013.33
2018-06-03T13:34:46.024Z,1013.27
2018-06-03T13:35:45.999Z,1013.34
2018-06-03T13:36:45.990Z,1013.27
2018-06-03T13:37:45.963Z,1013.24
2018-06-03T13:38:45.951Z,1013.25
2018-06-03T13:39:45.931Z,1013.30
2018-06-03T13:40:45.906Z,1013.31
2018-06-03T13:41:45.895Z,1013.27
2018-06-03T13:42:45.876Z,1013.31
2018-06-03T13:43:45.851Z,1013.20
2018-06-03T13:44:45.839Z,1013.24
2018-06-03T13:45:45.821Z,1013.30
2018-06-03T13:46:45.802Z,1013.23
2018-06-03T13:47:45.776Z,1013.21
2018-06-03T13:48:45.766Z,1013.21
2018-06-03T13:49:45.744Z,1013.19
2018-06-03T13:50:45.733Z,1013.22
2018-06-03T13:51:45.704Z,1013.18
2018-06-03T13:52:45.691Z,1013.13
2018-06-03T13:53:45.673Z,1013.14
2018-06-03T13:54:45.648Z,1013.10
2018-06-03T13:55:45.633Z,1013.08
2018-06-03T13:56:45.619Z,1013.06
2018-06-03T13:57:45.590Z,1013.04
2018-06-03T13:58:45.576Z,1013.06
2018-06-03T13:59:45.566Z,1013.06
2018-06-03T14:00:45.539Z,1013.00
2018-06-03T14:01:45.520Z,1013.06
2018-06-03T14:02:45.540Z,1012.98
2018-06-03T14:03:45.495Z,1012.97
2018-06-03T14:04:45.469Z,1013.00
2018-06-03T14:05:45.453Z,1012.99
2018-06-03T14:06:45.428Z,1013.01
2018-06-03T14:07:45.407Z,1012.99
2018-06-03T14:08:45.400Z,1012.94
2018-06-03T14:09:45.377Z,1012.88
2018-06-03T14:10:45.357Z,1012.86
2018-06-03T14:11:45.335Z,1012.96
2018-06-03T14:12:45.326Z,1012.91
2018-06-03T14:13:45.298Z,1012.98
2018-06-03T14:14:45.283Z,1012.90
2018-06-03T14:15:45.265Z,1012.91
2018-06-03T14:16:45.244Z,1012.91
2018-06-03T14:17:45.227Z,1012.93
2018-06-03T14:18:45.214Z,1012.99
2018-06-03T14:19:45.189Z,1012.91
2018-06-03T14:20:45.183Z,1012.89
2018-06-03T14:21:45.154Z,1012.90
2018-06-03T14:22:45.141Z,1012.93
2018-06-03T14:23:45.121Z,1012.88
2018-06-03T14:24:45.103Z,1012.92
2018-06-03T14:25:45.135Z,1012.88
2018-06-03T14:26:45.065Z,1012.84
2018-06-03T14:27:45.052Z,1012.89
2018-06-03T14:28:45.026Z,1012.96
2018-06-03T14:29:45.014Z,1013.00
2018-06-03T14:30:44.997Z,1012.89
2018-06-03T14:31:44.983Z,1012.89
2018-06-03T14:32:44.966Z,1012.86
2018-06-03T14:33:44.939Z,1012.85
2018-06-03T14:34:44.939Z,1012.87
2018-06-03T14:35:44.908Z,1012.87
2018-06-03T14:36:44.885Z,1012.88
2018-06-03T14:37:44.882Z,1012.91
2018-06-03T14:38:44.860Z,1012.87
2018-06-03T14:39:44.833Z,1012.83
2018-06-03T14:40:44.814Z,1012.82
2018-06-03T14:41:44.800Z,1012.82
2018-06-03T14:42:44.778Z,1012.75
2018-06-03T14:43:44.757Z,1012.79
2018-06-03T14:44:44.745Z,1012.75
2018-06-03T14:45:44.733Z,1012.78
2018-06-03T14:46:44.711Z,1012.73
2018-06-03T14:47:44.693Z,1012.72
2018-06-03T14:48:44.670Z,1012.76
2018-06-03T14:49:44.650Z,1012.73
2018-06-03T14:50:44.701Z,1012.71
2018-06-03T14:51:44.622Z,1012.71
2018-06-03T14:52:44.594Z,1012.72
2018-06-03T14:53:44.583Z,1012.69
2018-06-03T14:54:44.557Z,1012.66
2018-06-03T14:55:44.546Z,1012.67
2018-06-03T14:56:44.525Z,1012.71
2018-06-03T14:57:44.509Z,1012.65
2018-06-03T14:58:44.443Z,1012.65
2018-06-03T14:59:44.422Z,1012.63
2018-06-03T15:00:44.402Z,1012.64
2018-06-03T15:01:44.386Z,1012.66
2018-06-03T15:02:44.363Z,1012.69
2018-06-03T15:03:44.347Z,1012.66
2018-06-03T15:04:44.337Z,1012.67
2018-06-03T15:05:44.315Z,1012.60
2018-06-03T15:06:44.297Z,1012.57
2018-06-03T15:07:44.281Z,1012.56
2018-06-03T15:08:44.258Z,1012.54
2018-06-03T15:09:44.248Z,1012.55
2018-06-03T15:10:44.225Z,1012.54
2018-06-03T15:11:44.211Z,1012.53
2018-06-03T15:12:44.192Z,1012.48
2018-06-03T15:13:44.207Z,1012.48
2018-06-03T15:14:44.147Z,1012.47
2018-06-03T15:15:44.136Z,1012.46
2018-06-03T15:16:44.115Z,1012.43
2018-06-03T15:17:44.095Z,1012.43
2018-06-03T15:18:44.081Z,1012.42
2018-06-03T15:19:44.075Z,1012.34
2018-06-03T15:20:44.065Z,1012.37
2018-06-03T15:21:44.043Z,1012.38
2018-06-03T15:22:44.032Z,1012.33
2018-06-03T15:23:44.014Z,1012.35
2018-06-03T15:24:44.010Z,1012.36
2018-06-03T15:25:43.992Z,1012.34
2018-06-03T15:26:43.972Z,1012.31
2018-06-03T15:27:43.957Z,1012.33
2018-06-03T15:28:43.936Z,1012.33
2018-06-03T15:29:43.924Z,1012.24
2018-06-03T15:30:43.905Z,1012.26
2018-06-03T15:31:43.884Z,1012.27
2018-06-03T15:32:43.877Z,1012.28
2018-06-03T15:33:43.890Z,1012.31
2018-06-03T15:34:43.856Z,1012.21
2018-06-03T15:35:43.812Z,1012.17
2018-06-03T15:36:43.802Z,1012.17
2018-06-03T15:37:43.785Z,1012.15
2018-06-03T15:38:43.773Z,1012.12
2018-06-03T15:39:43.747Z,1012.18
2018-06-03T15:40:44.013Z,1012.14
2018-06-03T15:41:43.710Z,1012.14
2018-06-03T15:42:43.701Z,1012.15
2018-06-03T15:43:43.722Z,1012.12
2018-06-03T15:44:43.656Z,1012.09
2018-06-03T15:45:43.643Z,1012.06
2018-06-03T15:46:43.613Z,1012.10
2018-06-03T15:47:43.601Z,1012.09
2018-06-03T15:48:43.590Z,1012.05
2018-06-03T15:49:43.578Z,1012.04
2018-06-03T15:50:43.545Z,1012.04
2018-06-03T15:51:43.532Z,1012.09
2018-06-03T15:52:43.509Z,1012.05
2018-06-03T15:53:43.497Z,1012.05
2018-06-03T15:54:43.474Z,1012.06
2018-06-03T15:55:43.460Z,1012.01
2018-06-03T15:56:43.432Z,1012.03
2018-06-03T15:57:43.423Z,1012.03
2018-06-03T15:58:43.397Z,1012.00
2018-06-03T15:59:43.384Z,1012.07
2018-06-03T16:00:43.364Z,1011.97
2018-06-03T16:01:43.349Z,1011.98
2018-06-03T16:02:43.326Z,1011.97
2018-06-03T16:03:43.316Z,1011.99
2018-06-03T16:04:43.295Z,1011.96
2018-06-03T16:05:43.306Z,1011.96
2018-06-03T16:06:43.251Z,1011.89
2018-06-03T16:07:43.239Z,1011.93
2018-06-03T16:08:43.218Z,1011.93
2018-06-03T16:09:43.205Z,1011.94
2018-06-03T16:10:43.187Z,1011.91
2018-06-03T16:11:43.170Z,1011.89
2018-06-03T16:12:43.146Z,1011.94
2018-06-03T16:13:43.180Z,1011.86
2018-06-03T16:14:43.110Z,1011.93
2018-06-03T16:15:43.128Z,1011.90
2018-06-03T16:16:43.076Z,1011.88
2018-06-03T16:17:43.068Z,1011.83
2018-06-03T16:18:43.043Z,1011.83
2018-06-03T16:19:43.030Z,1011.80
2018-06-03T16:20:43.018Z,1011.88
2018-06-03T16:21:42.998Z,1011.82
2018-06-03T16:22:42.987Z,1011.82
2018-06-03T16:23:42.965Z,1011.82
2018-06-03T16:24:42.956Z,1011.80
2018-06-03T16:25:42.948Z,1011.80
2018-06-03T16:26:42.935Z,1011.81
2018-06-03T16:27:42.958Z,1011.81
2018-06-03T16:28:42.888Z,1011.76
2018-06-03T16:29:42.873Z,1011.76
2018-06-03T16:30:42.916Z,1011.80
2018-06-03T16:31:42.911Z,1011.77
2018-06-03T16:32:42.825Z,1011.75
2018-06-03T16:33:42.811Z,1011.70
2018-06-03T16:34:42.790Z,1011.73
2018-06-03T16:35:42.796Z,1011.79
2018-06-03T16:36:42.768Z,1011.76
2018-06-03T16:37:42.749Z,1011.73
2018-06-03T16:38:42.733Z,1011.73
2018-06-03T16:39:42.727Z,1011.75
2018-06-03T16:40:42.728Z,1011.80
2018-06-03T16:41:42.698Z,1011.84
2018-06-03T16:42:42.690Z,1011.81
2018-06-03T16:43:42.671Z,1011.80
2018-06-03T16:44:42.668Z,1011.79
2018-06-03T16:45:42.653Z,1011.82
2018-06-03T16:46:42.650Z,1011.77
2018-06-03T16:47:42.635Z,1011.78
2018-06-03T16:48:42.637Z,1011.81
2018-06-03T16:49:42.611Z,1011.80
2018-06-03T16:50:42.675Z,1011.80
2018-06-03T16:51:42.580Z,1011.80
2018-06-03T16:52:42.584Z,1011.78
2018-06-03T16:53:42.563Z,1011.77
2018-06-03T16:54:42.549Z,1011.76
2018-06-03T16:55:42.539Z,1011.81
2018-06-03T16:56:42.539Z,1011.75
2018-06-03T16:57:42.525Z,1011.77
2018-06-03T16:58:42.517Z,1011.70
2018-06-03T16:59:42.513Z,1011.75
2018-06-03T17:00:42.485Z,1011.73
2018-06-03T17:01:42.482Z,1011.72
2018-06-03T17:02:43.373Z,1011.74
2018-06-03T17:03:42.455Z,1011.70
2018-06-03T17:04:42.454Z,1011.75
2018-06-03T17:05:42.474Z,1011.73
2018-06-03T17:06:42.419Z,1011.70
2018-06-03T17:07:42.423Z,1011.73
2018-06-03T17:08:42.400Z,1011.74
2018-06-03T17:09:42.400Z,1011.71
2018-06-03T17:10:42.378Z,1011.75
2018-06-03T17:11:42.374Z,1011.74
2018-06-03T17:12:42.359Z,1011.74
2018-06-03T17:13:42.351Z,1011.77
2018-06-03T17:14:42.350Z,1011.70
2018-06-03T17:15:42.325Z,1011.69
2018-06-03T17:16:42.343Z,1011.70
2018-06-03T17:17:42.302Z,1011.72
2018-06-03T17:18:42.305Z,1011.70
2018-06-03T17:19:42.286Z,1011.68
2018-06-03T17:20:42.284Z,1011.65
2018-06-03T17:21:42.266Z,1011.63
2018-06-03T17:22:42.257Z,1011.63
2018-06-03T17:23:42.251Z,1011.66
2018-06-03T17:24:42.233Z,1011.61
2018-06-03T17:25:42.223Z,1011.62
2018-06-03T17:26:42.217Z,1011.59
2018-06-03T17:27:42.200Z,1011.60
2018-06-03T17:28:42.191Z,1011.60
2018-06-03T17:29:42.193Z,1011.56
2018-06-03T17:30:42.164Z,1011.52
2018-06-03T17:31:42.158Z,1011.54
2018-06-03T17:32:42.152Z,1011.54
2018-06-03T17:33:42.143Z,1011.51
2018-06-03T17:34:42.121Z,1011.51
2018-06-03T17:35:42.107Z,1011.46
2018-06-03T17:36:42.104Z,1011.50
2018-06-03T17:37:42.092Z,1011.48
2018-06-03T17:38:42.076Z,1011.47
2018-06-03T17:39:42.071Z,1011.45
2018-06-03T17:40:42.052Z,1011.44
2018-06-03T17:41:42.050Z,1011.43
2018-06-03T17:42:42.098Z,1011.40
2018-06-03T17:43:42.021Z,1011.38
2018-06-03T17:44:42.014Z,1011.41
2018-06-03T17:45:42.001Z,1011.38
2018-06-03T17:46:41.983Z,1011.35
2018-06-03T17:47:41.967Z,1011.33
2018-06-03T17:48:41.964Z,1011.30
2018-06-03T17:49:41.947Z,1011.35
2018-06-03T17:50:41.979Z,1011.26
2018-06-03T17:51:41.918Z,1011.25
2018-06-03T17:52:41.946Z,1011.24
2018-06-03T17:53:41.900Z,1011.21
2018-06-03T17:54:41.879Z,1011.19
2018-06-03T17:55:41.871Z,1011.14
2018-06-03T17:56:41.852Z,1011.17
2018-06-03T17:57:41.839Z,1011.15
2018-06-03T17:58:41.827Z,1011.17
2018-06-03T17:59:41.818Z,1011.18
2018-06-03T18:00:41.791Z,1011.14
2018-06-03T18:01:41.785Z,1011.12
2018-06-03T18:02:41.780Z,1011.12
2018-06-03T18:03:41.765Z,1011.15
2018-06-03T18:04:41.734Z,1011.12
2018-06-03T18:05:41.741Z,1011.14
2018-06-03T18:06:41.700Z,1011.13
2018-06-03T18:07:41.690Z,1011.12
2018-06-03T18:08:41.671Z,1011.10
2018-06-03T18:09:41.660Z,1011.12
2018-06-03T18:10:41.653Z,1011.12
2018-06-03T18:11:41.626Z,1011.11
2018-06-03T18:12:41.613Z,1011.14
2018-06-03T18:13:41.593Z,1011.11
2018-06-03T18:14:41.578Z,1011.10
2018-06-03T18:15:41.557Z,1011.04
2018-06-03T18:16:41.549Z,1011.05
2018-06-03T18:17:41.522Z,1011.05
2018-06-03T18:18:41.516Z,1011.02
2018-06-03T18:19:41.489Z,1010.98
2018-06-03T18:20:41.481Z,1011.04
2018-06-03T18:21:41.458Z,1011.02
2018-06-03T18:22:41.450Z,1011.00
2018-06-03T18:23:41.425Z,1010.96
2018-06-03T18:24:41.410Z,1010.95
2018-06-03T18:25:41.389Z,1010.92
2018-06-03T18:26:41.376Z,1010.96
2018-06-03T18:27:41.360Z,1010.92
2018-06-03T18:28:41.334Z,1010.92
2018-06-03T18:29:41.324Z,1010.92
2018-06-03T18:30:41.297Z,1010.90
2018-06-03T18:31:41.286Z,1010.90
2018-06-03T18:32:41.265Z,1010.88
2018-06-03T18:33:41.281Z,1010.90
2018-06-03T18:34:41.232Z,1010.91
2018-06-03T18:35:41.207Z,1010.94
2018-06-03T18:36:41.198Z,1010.96
2018-06-03T18:37:41.178Z,1010.94
2018-06-03T18:38:41.157Z,1010.94
2018-06-03T18:39:41.146Z,1010.94
2018-06-03T18:40:41.120Z,1010.93
2018-06-03T18:41:41.104Z,1010.93
2018-06-03T18:42:41.082Z,1010.93
2018-06-03T18:43:41.063Z,1010.93
2018-06-03T18:44:41.041Z,1010.89
2018-06-03T18:45:41.032Z,1010.85
2018-06-03T18:46:41.004Z,1010.88
2018-06-03T18:47:40.997Z,1010.86
2018-06-03T18:48:40.971Z,1010.89
2018-06-03T18:49:40.954Z,1010.82
2018-06-03T18:50:40.930Z,1010.83
2018-06-03T18:51:44.469Z,1010.85
2018-06-03T18:52:40.896Z,1010.84
2018-06-03T18:53:40.877Z,1010.83
2018-06-03T18:54:40.850Z,1010.81
2018-06-03T18:55:40.834Z,1010.80
2018-06-03T18:56:40.817Z,1010.82
2018-06-03T18:57:40.817Z,1010.83
2018-06-03T18:58:40.779Z,1010.82
2018-06-03T18:59:40.759Z,1010.82
2018-06-03T19:00:40.738Z,1010.85
2018-06-03T19:01:40.718Z,1010.81
2018-06-03T19:02:40.698Z,1010.81
2018-06-03T19:03:40.680Z,1010.79
2018-06-03T19:04:40.657Z,1010.83
2018-06-03T19:05:40.638Z,1010.79
2018-06-03T19:06:40.627Z,1010.81
2018-06-03T19:07:40.599Z,1010.86
2018-06-03T19:08:40.585Z,1010.82
2018-06-03T19:09:40.554Z,1010.86
2018-06-03T19:10:40.552Z,1010.86
2018-06-03T19:11:40.529Z,1010.81
2018-06-03T19:12:40.499Z,1010.80
2018-06-03T19:13:40.546Z,1010.83
2018-06-03T19:14:40.463Z,1010.77
2018-06-03T19:15:40.445Z,1010.79
2018-06-03T19:16:40.422Z,1010.81
2018-06-03T19:17:40.398Z,1010.80
2018-06-03T19:18:40.385Z,1010.81
2018-06-03T19:19:40.366Z,1010.79
2018-06-03T19:20:40.345Z,1010.78
2018-06-03T19:21:40.328Z,1010.79
2018-06-03T19:22:40.301Z,1010.77
2018-06-03T19:23:40.288Z,1010.82
2018-06-03T19:24:40.264Z,1010.81
2018-06-03T19:25:40.242Z,1010.79
2018-06-03T19:26:40.224Z,1010.82
2018-06-03T19:27:40.208Z,1010.82
2018-06-03T19:28:40.189Z,1010.81
2018-06-03T19:29:40.165Z,1010.80
2018-06-03T19:30:40.152Z,1010.81
2018-06-03T19:31:40.130Z,1010.78
2018-06-03T19:32:40.102Z,1010.80
2018-06-03T19:33:40.095Z,1010.81
2018-06-03T19:34:40.061Z,1010.82
2018-06-03T19:35:40.044Z,1010.81
2018-06-03T19:36:40.022Z,1010.82
2018-06-03T19:37:40.005Z,1010.80
2018-06-03T19:38:39.986Z,1010.84
2018-06-03T19:39:39.960Z,1010.89
2018-06-03T19:40:40.000Z,1010.89
2018-06-03T19:41:39.924Z,1010.85
2018-06-03T19:42:39.909Z,1010.91
2018-06-03T19:43:39.886Z,1010.91
2018-06-03T19:44:39.866Z,1010.90
2018-06-03T19:45:39.841Z,1010.92
2018-06-03T19:46:39.829Z,1010.92
2018-06-03T19:47:39.803Z,1010.94
2018-06-03T19:48:39.787Z,1010.97
2018-06-03T19:49:39.766Z,1010.95
2018-06-03T19:50:39.740Z,1011.00
2018-06-03T19:51:39.737Z,1010.98
2018-06-03T19:52:39.697Z,1010.98
2018-06-03T19:53:39.686Z,1011.04
2018-06-03T19:54:39.654Z,1011.04
2018-06-03T19:55:39.644Z,1011.05
2018-06-03T19:56:39.614Z,1011.06
2018-06-03T19:57:39.604Z,1011.09
2018-06-03T19:58:39.578Z,1011.09
2018-06-03T19:59:39.554Z,1011.12
2018-06-03T20:00:39.538Z,1011.11
2018-06-03T20:01:39.512Z,1011.12
2018-06-03T20:02:39.493Z,1011.12
2018-06-03T20:03:39.496Z,1011.12
2018-06-03T20:04:39.456Z,1011.16
2018-06-03T20:05:39.432Z,1011.17
2018-06-03T20:06:39.419Z,1011.14
2018-06-03T20:07:39.395Z,1011.14
2018-06-03T20:08:39.372Z,1011.12
2018-06-03T20:09:39.357Z,1011.13
2018-06-03T20:10:39.335Z,1011.13
2018-06-03T20:11:39.315Z,1011.13
2018-06-03T20:12:39.294Z,1011.15
2018-06-03T20:13:39.334Z,1011.16
2018-06-03T20:14:39.260Z,1011.16
2018-06-03T20:15:39.226Z,1011.16
2018-06-03T20:16:39.208Z,1011.18
2018-06-03T20:17:39.245Z,1011.17
2018-06-03T20:18:39.168Z,1011.19
2018-06-03T20:19:39.146Z,1011.21
2018-06-03T20:20:39.126Z,1011.18
2018-06-03T20:21:39.140Z,1011.17
2018-06-03T20:22:39.088Z,1011.17
2018-06-03T20:23:39.059Z,1011.21
2018-06-03T20:24:39.121Z,1011.19
2018-06-03T20:25:39.023Z,1011.19
2018-06-03T20:26:38.995Z,1011.18
2018-06-03T20:27:39.030Z,1011.19
2018-06-03T20:28:38.957Z,1011.18
2018-06-03T20:29:38.944Z,1011.16
2018-06-03T20:30:38.934Z,1011.19
2018-06-03T20:31:38.900Z,1011.16
2018-06-03T20:32:38.877Z,1011.17
2018-06-03T20:33:38.871Z,1011.15
2018-06-03T20:34:38.834Z,1011.14
2018-06-03T20:35:38.889Z,1011.15
2018-06-03T20:36:38.785Z,1011.19
2018-06-03T20:37:38.774Z,1011.11
2018-06-03T20:38:38.741Z,1011.14
2018-06-03T20:39:38.726Z,1011.15
2018-06-03T20:40:38.705Z,1011.15
2018-06-03T20:41:38.683Z,1011.15
2018-06-03T20:42:38.676Z,1011.13
2018-06-03T20:43:38.640Z,1011.14
2018-06-03T20:44:38.633Z,1011.13
2018-06-03T20:45:38.602Z,1011.13
2018-06-03T20:46:38.575Z,1011.14
2018-06-03T20:47:38.564Z,1011.12
2018-06-03T20:48:38.532Z,1011.16
2018-06-03T20:49:38.522Z,1011.16
2018-06-03T20:50:38.493Z,1011.12
2018-06-03T20:51:38.470Z,1011.17
2018-06-03T20:52:38.506Z,1011.18
2018-06-03T20:53:38.427Z,1011.18
2018-06-03T20:54:38.412Z,1011.21
2018-06-03T20:55:38.385Z,1011.23
2018-06-03T20:56:38.366Z,1011.24
2018-06-03T20:57:38.342Z,1011.23
2018-06-03T20:58:38.323Z,1011.24
2018-06-03T20:59:38.298Z,1011.23
2018-06-03T21:00:38.286Z,1011.26
2018-06-03T21:01:38.257Z,1011.26
2018-06-03T21:02:38.238Z,1011.27
2018-06-03T21:03:38.213Z,1011.25
2018-06-03T21:04:38.199Z,1011.28
2018-06-03T21:05:38.166Z,1011.27
2018-06-03T21:06:38.154Z,1011.30
2018-06-03T21:07:38.129Z,1011.30
2018-06-03T21:08:38.110Z,1011.30
2018-06-03T21:09:38.091Z,1011.28
2018-06-03T21:10:38.065Z,1011.27
2018-06-03T21:11:38.036Z,1011.27
2018-06-03T21:12:38.023Z,1011.25
2018-06-03T21:13:38.010Z,1011.26
2018-06-03T21:14:38.017Z,1011.30
2018-06-03T21:15:37.954Z,1011.26
2018-06-03T21:16:37.940Z,1011.27
2018-06-03T21:17:37.917Z,1011.32
2018-06-03T21:18:37.917Z,1011.30
2018-06-03T21:19:37.883Z,1011.32
2018-06-03T21:20:37.848Z,1011.31
2018-06-03T21:21:37.829Z,1011.31
2018-06-03T21:22:37.802Z,1011.28
2018-06-03T21:23:37.776Z,1011.28
2018-06-03T21:24:37.793Z,1011.30
2018-06-03T21:25:37.779Z,1011.31
2018-06-03T21:26:37.779Z,1011.27
2018-06-03T21:27:37.696Z,1011.30
2018-06-03T21:28:37.677Z,1011.25
2018-06-03T21:29:37.657Z,1011.25
2018-06-03T21:30:38.463Z,1011.26
2018-06-03T21:31:37.627Z,1011.30
2018-06-03T21:32:37.597Z,1011.31
2018-06-03T21:33:37.597Z,1011.29
2018-06-03T21:34:37.538Z,1011.25
2018-06-03T21:35:37.520Z,1011.30
2018-06-03T21:36:37.508Z,1011.28
2018-06-03T21:37:37.482Z,1011.25
2018-06-03T21:38:37.456Z,1011.27
2018-06-03T21:39:37.439Z,1011.22
2018-06-03T21:40:37.446Z,1011.24
2018-06-03T21:41:37.394Z,1011.21
2018-06-03T21:42:37.365Z,1011.24
2018-06-03T21:43:37.408Z,1011.23
2018-06-03T21:44:37.324Z,1011.24
2018-06-03T21:45:37.304Z,1011.22
2018-06-03T21:46:37.280Z,1011.25
2018-06-03T21:47:37.263Z,1011.24
2018-06-03T21:48:37.247Z,1011.24
2018-06-03T21:49:37.220Z,1011.24
2018-06-03T21:50:37.201Z,1011.23
2018-06-03T21:51:37.177Z,1011.23
2018-06-03T21:52:37.153Z,1011.25
2018-06-03T21:53:37.184Z,1011.24
2018-06-03T21:54:37.106Z,1011.27
2018-06-03T21:55:37.085Z,1011.25
2018-06-03T21:56:37.072Z,1011.28
2018-06-03T21:57:37.050Z,1011.25
2018-06-03T21:58:37.031Z,1011.25
2018-06-03T21:59:37.007Z,1011.20
2018-06-03T22:00:37.061Z,1011.19
2018-06-03T22:01:36.953Z,1011.23
2018-06-03T22:02:36.933Z,1011.20
2018-06-03T22:03:36.916Z,1011.21
2018-06-03T22:04:36.889Z,1011.20
2018-06-03T22:05:36.877Z,1011.17
2018-06-03T22:06:36.843Z,1011.18
2018-06-03T22:07:36.839Z,1011.18
2018-06-03T22:08:36.801Z,1011.19
2018-06-03T22:09:36.783Z,1011.14
2018-06-03T22:10:36.757Z,1011.12
2018-06-03T22:11:36.789Z,1011.10
2018-06-03T22:12:36.773Z,1011.12
2018-06-03T22:13:36.697Z,1011.13
2018-06-03T22:14:36.672Z,1011.12
2018-06-03T22:15:36.643Z,1011.09
2018-06-03T22:16:36.641Z,1011.14
2018-06-03T22:17:36.606Z,1011.14
2018-06-03T22:18:36.580Z,1011.15
2018-06-03T22:19:36.559Z,1011.16
2018-06-03T22:20:36.536Z,1011.17
2018-06-03T22:21:36.518Z,1011.19
2018-06-03T22:22:36.493Z,1011.22
2018-06-03T22:23:36.469Z,1011.17
2018-06-03T22:24:36.455Z,1011.20
2018-06-03T22:25:36.435Z,1011.17
2018-06-03T22:26:36.437Z,1011.15
2018-06-03T22:27:36.382Z,1011.21
2018-06-03T22:28:36.366Z,1011.17
2018-06-03T22:29:36.343Z,1011.18
2018-06-03T22:30:36.318Z,1011.19
2018-06-03T22:31:36.293Z,1011.20
2018-06-03T22:32:36.274Z,1011.19
2018-06-03T22:33:36.254Z,1011.23
2018-06-03T22:34:36.224Z,1011.19
2018-06-03T22:35:36.212Z,1011.16
2018-06-03T22:36:36.187Z,1011.18
2018-06-03T22:37:36.167Z,1011.19
2018-06-03T22:38:36.142Z,1011.19
2018-06-03T22:39:36.120Z,1011.16
2018-06-03T22:40:36.098Z,1011.17
2018-06-03T22:41:36.070Z,1011.19
2018-06-03T22:42:36.055Z,1011.19
2018-06-03T22:43:36.027Z,1011.17
2018-06-03T22:44:36.013Z,1011.14
2018-06-03T22:45:35.983Z,1011.13
2018-06-03T22:46:35.968Z,1011.15
2018-06-03T22:47:35.946Z,1011.10
2018-06-03T22:48:35.920Z,1011.12
2018-06-03T22:49:35.901Z,1011.12
2018-06-03T22:50:35.877Z,1011.09
2018-06-03T22:51:35.853Z,1011.08
2018-06-03T22:52:35.835Z,1011.11
2018-06-03T22:53:35.808Z,1011.11
2018-06-03T22:54:35.788Z,1011.12
2018-06-03T22:55:35.761Z,1011.12
2018-06-03T22:56:35.742Z,1011.11
2018-06-03T22:57:35.717Z,1011.17
2018-06-03T22:58:35.704Z,1011.13
2018-06-03T22:59:35.685Z,1011.13
2018-06-03T23:00:35.649Z,1011.11
2018-06-03T23:01:35.634Z,1011.12
2018-06-03T23:02:35.613Z,1011.13
2018-06-03T23:03:35.583Z,1011.13
2018-06-03T23:04:35.571Z,1011.10
2018-06-03T23:05:35.544Z,1011.10
2018-06-03T23:06:35.518Z,1011.10
2018-06-03T23:07:35.502Z,1011.09
2018-06-03T23:08:35.475Z,1011.06
2018-06-03T23:09:35.469Z,1011.06
2018-06-03T23:10:35.431Z,1011.04
2018-06-03T23:11:35.413Z,1011.05
2018-06-03T23:12:35.388Z,1011.06
2018-06-03T23:13:35.362Z,1011.07
2018-06-03T23:14:35.337Z,1011.03
2018-06-03T23:15:35.325Z,1011.03
2018-06-03T23:16:35.303Z,1011.03
2018-06-03T23:17:35.277Z,1011.02
2018-06-03T23:18:35.252Z,1011.04
2018-06-03T23:19:35.239Z,1011.03
2018-06-03T23:20:35.204Z,1011.00
2018-06-03T23:21:35.189Z,1011.03
2018-06-03T23:22:35.162Z,1011.00
2018-06-03T23:23:35.148Z,1010.99
2018-06-03T23:24:35.121Z,1010.99
2018-06-03T23:25:35.100Z,1011.01
2018-06-03T23:26:35.069Z,1010.99
2018-06-03T23:27:35.054Z,1010.98
2018-06-03T23:28:35.027Z,1010.95
2018-06-03T23:29:35.020Z,1010.95
2018-06-03T23:30:34.988Z,1010.96
2018-06-03T23:31:34.967Z,1010.91
2018-06-03T23:32:34.937Z,1010.87
2018-06-03T23:33:34.923Z,1010.87
2018-06-03T23:34:34.889Z,1010.85
2018-06-03T23:35:34.874Z,1010.90
2018-06-03T23:36:34.851Z,1010.87
2018-06-03T23:37:34.828Z,1010.84
2018-06-03T23:38:34.803Z,1010.80
2018-06-03T23:39:34.785Z,1010.84
2018-06-03T23:40:34.769Z,1010.80
2018-06-03T23:41:34.733Z,1010.83
2018-06-03T23:42:34.721Z,1010.79